createdAt,value
2017-04-21T00:00:52.899Z,10.7
2017-04-21T00:01:54.726Z,10.7
2017-04-21T00:02:56.524Z,10.7
2017-04-21T00:03:58.329Z,10.8
2017-04-21T00:05:00.598Z,10.8
2017-04-21T00:06:02.433Z,10.8
2017-04-21T00:07:04.238Z,10.8
2017-04-21T00:08:06.417Z,10.8
2017-04-21T00:09:08.213Z,10.8
2017-04-21T00:10:10.025Z,10.7
2017-04-21T00:11:11.879Z,10.8
2017-04-21T00:12:13.761Z,10.8
2017-04-21T00:13:15.586Z,10.7
2017-04-21T00:14:17.392Z,10.8
2017-04-21T00:15:19.193Z,10.8
2017-04-21T00:16:21.138Z,10.8
2017-04-21T00:17:23.005Z,10.8
2017-04-21T00:18:24.830Z,10.8
2017-04-21T00:19:26.634Z,10.8
2017-04-21T00:20:28.432Z,10.8
2017-04-21T00:21:30.565Z,10.8
2017-04-21T00:22:32.365Z,10.8
2017-04-21T00:23:34.163Z,10.8
2017-04-21T00:24:35.970Z,10.8
2017-04-21T00:25:37.787Z,10.8
2017-04-21T00:26:39.925Z,10.8
2017-04-21T00:27:41.911Z,10.8
2017-04-21T00:28:44.419Z,10.8
2017-04-21T00:29:46.283Z,10.8
2017-04-21T00:30:48.078Z,10.8
2017-04-21T00:31:49.901Z,10.8
2017-04-21T00:32:51.716Z,10.8
2017-04-21T00:33:53.549Z,10.8
2017-04-21T00:34:55.347Z,10.8
2017-04-21T00:35:57.144Z,10.8
2017-04-21T00:36:58.965Z,10.8
2017-04-21T00:38:00.972Z,10.8
2017-04-21T00:39:03.449Z,10.8
2017-04-21T00:40:05.463Z,10.8
2017-04-21T00:41:07.260Z,10.8
2017-04-21T00:42:09.075Z,10.8
2017-04-21T00:43:10.869Z,10.8
2017-04-21T00:44:12.965Z,10.7
2017-04-21T00:45:14.863Z,10.8
2017-04-21T00:46:16.691Z,10.8
2017-04-21T00:47:18.487Z,10.8
2017-04-21T00:48:20.627Z,10.8
2017-04-21T00:49:22.431Z,10.7
2017-04-21T00:50:24.231Z,10.7
2017-04-21T00:51:26.242Z,10.7
2017-04-21T00:52:28.044Z,10.7
2017-04-21T00:53:29.842Z,10.7
2017-04-21T00:54:31.991Z,10.7
2017-04-21T00:55:34.145Z,10.7
2017-04-21T00:56:35.945Z,10.7
2017-04-21T00:57:38.127Z,10.7
2017-04-21T00:58:39.931Z,10.6
2017-04-21T00:59:41.737Z,10.6
2017-04-21T01:00:43.534Z,10.6
2017-04-21T01:01:45.342Z,10.6
2017-04-21T01:02:47.374Z,10.6
2017-04-21T01:03:49.177Z,10.6
2017-04-21T01:04:51.318Z,10.6
2017-04-21T01:05:53.114Z,10.6
2017-04-21T01:06:54.912Z,10.6
2017-04-21T01:07:56.720Z,10.6
2017-04-21T01:08:58.521Z,10.6
2017-04-21T01:10:00.335Z,10.6
2017-04-21T01:11:02.140Z,10.6
2017-04-21T01:12:04.058Z,10.6
2017-04-21T01:13:06.236Z,10.6
2017-04-21T01:14:08.044Z,10.6
2017-04-21T01:15:09.848Z,10.6
2017-04-21T01:16:11.648Z,10.6
2017-04-21T01:17:13.482Z,10.7
2017-04-21T01:18:31.018Z,10.6
2017-04-21T01:19:33.195Z,10.7
2017-04-21T01:20:35.007Z,10.7
2017-04-21T01:21:36.809Z,10.7
2017-04-21T01:22:38.614Z,10.7
2017-04-21T01:23:40.418Z,10.7
2017-04-21T01:24:42.608Z,10.7
2017-04-21T01:25:44.466Z,10.7
2017-04-21T01:26:46.355Z,10.7
2017-04-21T01:27:48.364Z,10.7
2017-04-21T01:28:50.161Z,10.7
2017-04-21T01:29:51.966Z,10.7
2017-04-21T01:30:53.768Z,10.7
2017-04-21T01:31:55.573Z,10.7
2017-04-21T01:32:57.414Z,10.7
2017-04-21T01:33:59.605Z,10.7
2017-04-21T01:35:01.815Z,10.7
2017-04-21T01:36:04.287Z,10.7
2017-04-21T01:37:06.106Z,10.7
2017-04-21T01:38:08.098Z,10.7
2017-04-21T01:39:10.304Z,10.7
2017-04-21T01:40:12.110Z,10.7
2017-04-21T01:41:13.915Z,10.7
2017-04-21T01:42:15.719Z,10.7
2017-04-21T01:43:17.524Z,10.7
2017-04-21T01:44:19.665Z,10.7
2017-04-21T01:45:21.499Z,10.7
2017-04-21T01:46:23.352Z,10.7
2017-04-21T01:47:25.242Z,10.7
2017-04-21T01:48:27.050Z,10.6
2017-04-21T01:49:28.863Z,10.6
2017-04-21T01:50:30.665Z,10.6
2017-04-21T01:51:32.468Z,10.6
2017-04-21T01:52:34.277Z,10.6
2017-04-21T01:53:37.115Z,10.6
2017-04-21T01:54:39.534Z,10.6
2017-04-21T01:55:42.203Z,10.6
2017-04-21T01:56:44.011Z,10.6
2017-04-21T01:57:45.812Z,10.6
2017-04-21T01:58:47.985Z,10.6
2017-04-21T01:59:49.805Z,10.6
2017-04-21T02:00:51.987Z,10.6
2017-04-21T02:01:53.831Z,10.6
2017-04-21T02:02:55.760Z,10.6
2017-04-21T02:03:57.604Z,10.6
2017-04-21T02:05:00.074Z,10.6
2017-04-21T02:06:01.930Z,10.6
2017-04-21T02:07:03.764Z,10.6
2017-04-21T02:08:05.570Z,10.6
2017-04-21T02:09:07.909Z,10.6
2017-04-21T02:10:10.422Z,10.6
2017-04-21T02:11:12.638Z,10.6
2017-04-21T02:12:14.439Z,10.6
2017-04-21T02:13:16.300Z,10.6
2017-04-21T02:14:18.449Z,10.6
2017-04-21T02:15:20.618Z,10.6
2017-04-21T02:16:22.427Z,10.6
2017-04-21T02:17:25.126Z,10.6
2017-04-21T02:18:26.928Z,10.6
2017-04-21T02:19:28.725Z,10.6
2017-04-21T02:20:30.526Z,10.7
2017-04-21T02:21:32.322Z,10.7
2017-04-21T02:22:34.501Z,10.7
2017-04-21T02:23:36.299Z,10.7
2017-04-21T02:24:38.777Z,10.7
2017-04-21T02:25:40.850Z,10.7
2017-04-21T02:26:43.071Z,10.7
2017-04-21T02:28:33.096Z,10.7
2017-04-21T02:29:35.031Z,10.6
2017-04-21T02:30:36.846Z,10.7
2017-04-21T02:31:38.646Z,10.7
2017-04-21T02:32:40.443Z,10.6
2017-04-21T02:33:42.267Z,10.6
2017-04-21T02:34:44.482Z,10.7
2017-04-21T02:35:46.595Z,10.6
2017-04-21T02:36:48.387Z,10.6
2017-04-21T02:37:50.897Z,10.6
2017-04-21T02:38:53.320Z,10.6
2017-04-21T02:39:55.327Z,10.6
2017-04-21T02:40:57.203Z,10.6
2017-04-21T02:41:59.016Z,10.6
2017-04-21T02:43:00.812Z,10.6
2017-04-21T02:44:02.617Z,10.6
2017-04-21T02:45:04.760Z,10.6
2017-04-21T02:46:06.569Z,10.6
2017-04-21T02:47:08.370Z,10.6
2017-04-21T02:48:10.174Z,10.6
2017-04-21T02:49:12.311Z,10.6
2017-04-21T02:50:14.162Z,10.6
2017-04-21T02:51:16.298Z,10.6
2017-04-21T02:52:18.151Z,10.6
2017-04-21T02:53:19.962Z,10.6
2017-04-21T02:54:22.047Z,10.6
2017-04-21T02:55:24.410Z,10.6
2017-04-21T02:56:26.635Z,10.7
2017-04-21T02:57:28.822Z,10.7
2017-04-21T02:58:30.938Z,10.7
2017-04-21T02:59:32.780Z,10.7
2017-04-21T03:00:34.919Z,10.7
2017-04-21T03:01:36.761Z,10.7
2017-04-21T03:02:38.908Z,10.7
2017-04-21T03:03:40.760Z,10.7
2017-04-21T03:04:42.964Z,10.7
2017-04-21T03:05:44.824Z,10.7
2017-04-21T03:06:46.650Z,10.7
2017-04-21T03:07:48.460Z,10.7
2017-04-21T03:08:50.724Z,10.7
2017-04-21T03:09:52.612Z,10.7
2017-04-21T03:10:54.439Z,10.7
2017-04-21T03:11:56.239Z,10.7
2017-04-21T03:12:58.066Z,10.7
2017-04-21T03:14:00.206Z,10.7
2017-04-21T03:15:02.035Z,10.7
2017-04-21T03:16:04.132Z,10.7
2017-04-21T03:17:05.998Z,10.7
2017-04-21T03:18:07.828Z,10.7
2017-04-21T03:19:09.970Z,10.6
2017-04-21T03:20:12.396Z,10.6
2017-04-21T03:21:14.458Z,10.6
2017-04-21T03:22:16.262Z,10.6
2017-04-21T03:23:18.062Z,10.6
2017-04-21T03:24:19.915Z,10.6
2017-04-21T03:25:21.773Z,10.6
2017-04-21T03:26:23.576Z,10.6
2017-04-21T03:27:26.118Z,10.6
2017-04-21T03:28:28.702Z,10.6
2017-04-21T03:29:30.543Z,10.6
2017-04-21T03:30:32.339Z,10.6
2017-04-21T03:31:34.528Z,10.6
2017-04-21T03:32:36.415Z,10.6
2017-04-21T03:33:38.560Z,10.6
2017-04-21T03:34:40.358Z,10.6
2017-04-21T03:35:42.157Z,10.6
2017-04-21T03:36:43.957Z,10.6
2017-04-21T03:37:45.758Z,10.6
2017-04-21T03:38:47.904Z,10.6
2017-04-21T03:39:50.077Z,10.6
2017-04-21T03:40:51.899Z,10.6
2017-04-21T03:41:53.768Z,10.6
2017-04-21T03:42:55.634Z,10.6
2017-04-21T03:43:57.954Z,10.6
2017-04-21T03:45:00.029Z,10.5
2017-04-21T03:46:01.873Z,10.5
2017-04-21T03:47:03.973Z,10.6
2017-04-21T03:48:05.980Z,10.6
2017-04-21T03:49:07.831Z,10.5
2017-04-21T03:50:09.666Z,10.5
2017-04-21T03:51:11.815Z,10.5
2017-04-21T03:52:13.943Z,10.5
2017-04-21T03:53:16.416Z,10.5
2017-04-21T03:54:18.958Z,10.5
2017-04-21T03:55:21.054Z,10.5
2017-04-21T03:56:22.922Z,10.5
2017-04-21T03:57:25.200Z,10.5
2017-04-21T03:58:27.001Z,10.5
2017-04-21T03:59:28.820Z,10.5
2017-04-21T04:00:30.615Z,10.5
2017-04-21T04:01:32.420Z,10.5
2017-04-21T04:02:34.221Z,10.5
2017-04-21T04:03:36.381Z,10.6
2017-04-21T04:04:38.583Z,10.6
2017-04-21T04:05:40.385Z,10.6
2017-04-21T04:06:42.187Z,10.6
2017-04-21T04:07:44.064Z,10.6
2017-04-21T04:08:45.927Z,10.6
2017-04-21T04:09:47.796Z,10.6
2017-04-21T04:10:49.617Z,10.5
2017-04-21T04:11:51.414Z,10.5
2017-04-21T04:12:53.221Z,10.6
2017-04-21T04:13:55.052Z,10.5
2017-04-21T04:14:56.908Z,10.6
2017-04-21T04:15:59.041Z,10.6
2017-04-21T04:17:00.904Z,10.6
2017-04-21T04:18:02.729Z,10.6
2017-04-21T04:19:04.865Z,10.6
2017-04-21T04:20:06.724Z,10.6
2017-04-21T04:21:08.522Z,10.6
2017-04-21T04:22:10.327Z,10.7
2017-04-21T04:23:12.157Z,10.7
2017-04-21T04:24:13.978Z,10.6
2017-04-21T04:25:15.848Z,10.7
2017-04-21T04:26:17.689Z,10.7
2017-04-21T04:27:19.495Z,10.7
2017-04-21T04:28:21.297Z,10.7
2017-04-21T04:29:23.095Z,10.7
2017-04-21T04:30:25.043Z,10.7
2017-04-21T04:31:26.877Z,10.7
2017-04-21T04:32:29.050Z,10.7
2017-04-21T04:33:30.853Z,10.7
2017-04-21T04:34:32.655Z,10.7
2017-04-21T04:35:34.793Z,10.7
2017-04-21T04:36:36.934Z,10.7
2017-04-21T04:37:38.805Z,10.7
2017-04-21T04:38:40.632Z,10.7
2017-04-21T04:39:42.428Z,10.6
2017-04-21T04:40:44.234Z,10.7
2017-04-21T04:41:46.492Z,10.7
2017-04-21T04:42:48.710Z,10.7
2017-04-21T04:43:51.162Z,10.7
2017-04-21T04:44:53.712Z,10.7
2017-04-21T04:45:55.581Z,10.7
2017-04-21T04:46:57.383Z,10.7
2017-04-21T04:47:59.181Z,10.7
2017-04-21T04:49:00.981Z,10.7
2017-04-21T04:50:02.793Z,10.7
2017-04-21T04:51:04.926Z,10.7
2017-04-21T04:52:06.757Z,10.7
2017-04-21T04:53:08.628Z,10.7
2017-04-21T04:54:10.584Z,10.7
2017-04-21T04:55:13.080Z,10.7
2017-04-21T04:56:15.211Z,10.7
2017-04-21T04:57:17.346Z,10.7
2017-04-21T04:58:19.150Z,10.7
2017-04-21T04:59:20.950Z,10.7
2017-04-21T05:00:22.756Z,10.7
2017-04-21T05:01:24.897Z,10.6
2017-04-21T05:02:26.705Z,10.6
2017-04-21T05:03:28.509Z,10.6
2017-04-21T05:04:30.317Z,10.6
2017-04-21T05:05:32.376Z,10.6
2017-04-21T05:06:34.443Z,10.6
2017-04-21T05:07:36.252Z,10.7
2017-04-21T05:08:38.070Z,10.7
2017-04-21T05:09:39.867Z,10.7
2017-04-21T05:10:41.672Z,10.7
2017-04-21T05:11:43.492Z,10.7
2017-04-21T05:12:45.289Z,10.7
2017-04-21T05:13:47.108Z,10.7
2017-04-21T05:14:49.251Z,10.7
2017-04-21T05:15:51.054Z,10.7
2017-04-21T05:16:53.209Z,10.7
2017-04-21T05:17:55.051Z,10.7
2017-04-21T05:18:56.852Z,10.7
2017-04-21T05:19:58.657Z,10.7
2017-04-21T05:21:00.463Z,10.7
2017-04-21T05:22:02.557Z,10.7
2017-04-21T05:23:04.408Z,10.7
2017-04-21T05:24:06.498Z,10.7
2017-04-21T05:25:23.545Z,10.7
2017-04-21T05:26:25.369Z,10.7
2017-04-21T05:27:27.173Z,10.7
2017-04-21T05:28:29.310Z,10.7
2017-04-21T05:29:31.139Z,10.7
2017-04-21T05:30:32.946Z,10.7
2017-04-21T05:31:34.747Z,10.7
2017-04-21T05:32:36.824Z,10.7
2017-04-21T05:33:38.631Z,10.7
2017-04-21T05:34:40.494Z,10.7
2017-04-21T05:35:42.347Z,10.8
2017-04-21T05:36:44.149Z,10.7
2017-04-21T05:37:45.998Z,10.8
2017-04-21T05:38:48.153Z,10.7
2017-04-21T05:39:50.235Z,10.8
2017-04-21T05:40:52.376Z,10.7
2017-04-21T05:41:54.255Z,10.8
2017-04-21T05:42:56.062Z,10.8
2017-04-21T05:43:58.293Z,10.7
2017-04-21T05:45:00.093Z,10.8
2017-04-21T05:46:01.901Z,10.7
2017-04-21T05:47:03.712Z,10.8
2017-04-21T05:48:05.510Z,10.7
2017-04-21T05:49:07.312Z,10.8
2017-04-21T05:50:09.831Z,10.8
2017-04-21T05:51:11.637Z,10.8
2017-04-21T05:52:13.440Z,10.8
2017-04-21T05:53:15.541Z,10.8
2017-04-21T05:54:17.387Z,10.9
2017-04-21T05:55:19.413Z,10.9
2017-04-21T05:56:21.463Z,10.9
2017-04-21T05:57:23.498Z,10.9
2017-04-21T05:58:25.369Z,10.9
2017-04-21T05:59:27.546Z,10.9
2017-04-21T06:00:29.395Z,10.9
2017-04-21T06:01:31.222Z,11
2017-04-21T06:02:33.045Z,10.9
2017-04-21T06:03:34.847Z,11
2017-04-21T06:04:36.646Z,10.9
2017-04-21T06:05:38.462Z,11
2017-04-21T06:06:40.753Z,10.9
2017-04-21T06:07:42.894Z,11
2017-04-21T06:08:45.378Z,11
2017-04-21T06:09:47.176Z,11
2017-04-21T06:10:48.982Z,11
2017-04-21T06:11:50.782Z,11
2017-04-21T06:12:52.583Z,11
2017-04-21T06:13:54.386Z,11
2017-04-21T06:14:56.215Z,11
2017-04-21T06:15:58.028Z,11
2017-04-21T06:17:00.178Z,11
2017-04-21T06:18:02.047Z,11
2017-04-21T06:19:03.847Z,11
2017-04-21T06:20:05.651Z,11
2017-04-21T06:21:07.449Z,11
2017-04-21T06:22:09.248Z,11
2017-04-21T06:23:11.049Z,11
2017-04-21T06:24:12.853Z,11.1
2017-04-21T06:25:14.648Z,11.1
2017-04-21T06:26:16.471Z,11.1
2017-04-21T06:27:18.277Z,11
2017-04-21T06:28:20.092Z,11.1
2017-04-21T06:29:21.970Z,11.1
2017-04-21T06:30:23.771Z,11.1
2017-04-21T06:31:25.907Z,11.1
2017-04-21T06:32:27.718Z,11.1
2017-04-21T06:33:29.515Z,11.1
2017-04-21T06:34:31.315Z,11.1
2017-04-21T06:35:33.112Z,11.2
2017-04-21T06:36:34.921Z,11.2
2017-04-21T06:37:36.724Z,11.2
2017-04-21T06:38:38.523Z,11.3
2017-04-21T06:39:40.333Z,11.3
2017-04-21T06:40:42.216Z,11.3
2017-04-21T06:41:44.019Z,11.3
2017-04-21T06:42:45.821Z,11.4
2017-04-21T06:43:47.621Z,11.4
2017-04-21T06:44:49.441Z,11.4
2017-04-21T06:45:51.244Z,11.4
2017-04-21T06:46:53.046Z,11.4
2017-04-21T06:47:54.848Z,11.5
2017-04-21T06:48:56.652Z,11.5
2017-04-21T06:49:58.455Z,11.5
2017-04-21T06:51:00.363Z,11.4
2017-04-21T06:52:02.157Z,11.4
2017-04-21T06:53:03.993Z,11.5
2017-04-21T06:54:05.795Z,11.5
2017-04-21T06:55:07.596Z,11.5
2017-04-21T06:56:09.398Z,11.5
2017-04-21T06:57:11.537Z,11.5
2017-04-21T06:58:13.687Z,11.5
2017-04-21T06:59:15.848Z,11.5
2017-04-21T07:00:17.645Z,11.5
2017-04-21T07:01:19.785Z,11.5
2017-04-21T07:02:21.924Z,11.5
2017-04-21T07:03:23.727Z,11.5
2017-04-21T07:04:25.649Z,11.5
2017-04-21T07:05:27.781Z,11.5
2017-04-21T07:06:29.612Z,11.5
2017-04-21T07:07:32.093Z,11.5
2017-04-21T07:08:33.894Z,11.5
2017-04-21T07:09:35.696Z,11.5
2017-04-21T07:10:37.500Z,11.5
2017-04-21T07:11:39.299Z,11.5
2017-04-21T07:12:41.103Z,11.5
2017-04-21T07:13:42.920Z,11.5
2017-04-21T07:14:45.056Z,11.6
2017-04-21T07:15:47.002Z,11.6
2017-04-21T07:16:49.134Z,11.6
2017-04-21T07:17:51.366Z,11.7
2017-04-21T07:18:53.690Z,11.7
2017-04-21T07:19:56.137Z,11.7
2017-04-21T07:20:58.401Z,11.8
2017-04-21T07:22:00.670Z,11.8
2017-04-21T07:23:02.856Z,11.8
2017-04-21T07:24:05.267Z,11.9
2017-04-21T07:25:07.353Z,11.9
2017-04-21T07:26:09.445Z,11.9
2017-04-21T07:27:11.485Z,11.9
2017-04-21T07:28:14.252Z,11.9
2017-04-21T07:29:16.394Z,11.9
2017-04-21T07:30:18.191Z,11.9
2017-04-21T07:31:19.987Z,11.9
2017-04-21T07:32:21.790Z,11.9
2017-04-21T07:33:23.587Z,12
2017-04-21T07:34:25.390Z,12
2017-04-21T07:35:27.544Z,12
2017-04-21T07:36:29.359Z,12
2017-04-21T07:37:31.157Z,12
2017-04-21T07:38:33.009Z,12
2017-04-21T07:39:35.148Z,12
2017-04-21T07:40:36.969Z,12
2017-04-21T07:42:41.053Z,12.1
2017-04-21T07:43:42.859Z,12.1
2017-04-21T07:44:45.001Z,12.1
2017-04-21T07:45:47.147Z,12.2
2017-04-21T07:46:48.945Z,12.3
2017-04-21T07:47:50.752Z,12.3
2017-04-21T07:48:52.554Z,12.4
2017-04-21T07:49:54.358Z,12.4
2017-04-21T07:50:56.179Z,12.5
2017-04-21T07:51:57.979Z,12.5
2017-04-21T07:52:59.779Z,12.5
2017-04-21T07:54:01.665Z,12.5
2017-04-21T07:55:03.523Z,12.5
2017-04-21T07:56:05.329Z,12.5
2017-04-21T07:57:07.128Z,12.5
2017-04-21T07:58:08.933Z,12.5
2017-04-21T07:59:10.756Z,12.6
2017-04-21T08:01:50.644Z,12.6
2017-04-21T08:02:53.438Z,12.6
2017-04-21T08:03:55.239Z,12.7
2017-04-21T08:04:57.050Z,12.7
2017-04-21T08:05:58.858Z,12.7
2017-04-21T08:07:00.670Z,12.7
2017-04-21T08:08:02.471Z,12.8
2017-04-21T08:09:04.281Z,12.8
2017-04-21T08:10:06.260Z,12.8
2017-04-21T08:11:08.737Z,12.8
2017-04-21T08:12:10.541Z,12.8
2017-04-21T08:13:12.340Z,12.8
2017-04-21T08:14:14.139Z,12.9
2017-04-21T08:15:15.936Z,12.9
2017-04-21T08:16:17.769Z,12.9
2017-04-21T08:17:19.916Z,12.9
2017-04-21T08:18:21.714Z,12.9
2017-04-21T08:19:24.209Z,12.9
2017-04-21T08:20:26.353Z,12.9
2017-04-21T08:21:28.155Z,12.9
2017-04-21T08:22:30.051Z,12.9
2017-04-21T08:23:31.851Z,12.9
2017-04-21T08:24:33.664Z,12.9
2017-04-21T08:25:35.468Z,12.9
2017-04-21T08:26:37.605Z,12.9
2017-04-21T08:27:39.403Z,12.9
2017-04-21T08:28:41.211Z,12.9
2017-04-21T08:29:43.016Z,13
2017-04-21T08:30:44.822Z,13
2017-04-21T08:31:46.922Z,13.1
2017-04-21T08:32:49.013Z,13.1
2017-04-21T08:33:50.821Z,13.1
2017-04-21T08:34:52.626Z,13.1
2017-04-21T08:35:54.428Z,13.2
2017-04-21T08:36:56.228Z,13.1
2017-04-21T08:37:58.387Z,13.2
2017-04-21T08:39:00.189Z,13.2
2017-04-21T08:40:01.991Z,13.2
2017-04-21T08:41:03.796Z,13.3
2017-04-21T08:42:05.941Z,13.3
2017-04-21T08:43:07.744Z,13.4
2017-04-21T08:44:09.547Z,13.3
2017-04-21T08:45:11.349Z,13.4
2017-04-21T08:46:13.162Z,13.4
2017-04-21T08:47:14.969Z,13.4
2017-04-21T08:48:16.774Z,13.4
2017-04-21T08:49:18.924Z,13.4
2017-04-21T08:50:21.069Z,13.5
2017-04-21T08:51:22.876Z,13.6
2017-04-21T08:52:24.687Z,13.6
2017-04-21T08:53:26.590Z,13.7
2017-04-21T08:54:28.524Z,13.8
2017-04-21T08:55:30.327Z,13.8
2017-04-21T08:56:32.129Z,13.8
2017-04-21T08:57:33.939Z,13.9
2017-04-21T08:58:35.743Z,13.9
2017-04-21T08:59:37.548Z,13.9
2017-04-21T09:00:39.349Z,13.9
2017-04-21T09:01:41.172Z,13.9
2017-04-21T09:02:42.977Z,13.9
2017-04-21T09:03:44.779Z,14
2017-04-21T09:04:46.677Z,14
2017-04-21T09:05:48.616Z,14.1
2017-04-21T09:06:50.425Z,14.2
2017-04-21T09:07:52.232Z,14.2
2017-04-21T09:08:54.038Z,14.2
2017-04-21T09:09:55.843Z,14.2
2017-04-21T09:10:57.652Z,14.3
2017-04-21T09:12:00.154Z,14.3
2017-04-21T09:13:01.961Z,14.4
2017-04-21T09:14:04.104Z,14.4
2017-04-21T09:15:06.246Z,14.5
2017-04-21T09:16:08.149Z,14.5
2017-04-21T09:17:10.021Z,14.5
2017-04-21T09:18:11.825Z,14.6
2017-04-21T09:19:13.640Z,14.6
2017-04-21T09:20:15.445Z,14.6
2017-04-21T09:21:17.247Z,14.7
2017-04-21T09:22:19.047Z,14.8
2017-04-21T09:23:20.857Z,14.8
2017-04-21T09:24:22.664Z,14.9
2017-04-21T09:25:24.470Z,14.9
2017-04-21T09:26:26.282Z,15
2017-04-21T09:27:28.164Z,15
2017-04-21T09:28:30.377Z,15.1
2017-04-21T09:29:32.179Z,15.1
2017-04-21T09:32:38.524Z,15.2
2017-04-21T09:34:34.081Z,15.2
2017-04-21T09:36:36.093Z,15.5
2017-04-21T09:37:37.977Z,15.7
2017-04-21T09:38:54.670Z,15.7
2017-04-21T09:39:56.528Z,15.8
2017-04-21T09:40:58.339Z,15.8
2017-04-21T09:42:13.254Z,15.9
2017-04-21T09:44:00.678Z,15.9
2017-04-21T09:45:02.490Z,16
2017-04-21T09:46:04.291Z,16
2017-04-21T09:47:06.096Z,16
2017-04-21T09:48:07.899Z,16.1
2017-04-21T09:49:09.715Z,16.1
2017-04-21T09:50:54.205Z,16.2
2017-04-21T09:58:33.747Z,16.2
2017-04-21T10:08:33.732Z,16.1
2017-04-21T10:09:59.885Z,15.7
2017-04-21T10:11:01.691Z,15.8
2017-04-21T10:12:03.839Z,15.8
2017-04-21T10:13:05.645Z,15.8
2017-04-21T10:14:07.800Z,15.8
2017-04-21T10:15:09.757Z,15.9
2017-04-21T10:16:11.727Z,15.8
2017-04-21T10:17:13.527Z,15.8
2017-04-21T10:18:15.337Z,15.8
2017-04-21T10:19:17.144Z,15.8
2017-04-21T10:20:19.286Z,15.8
2017-04-21T10:21:21.098Z,15.8
2017-04-21T10:22:22.905Z,15.8
2017-04-21T10:23:24.713Z,15.8
2017-04-21T10:24:26.860Z,15.8
2017-04-21T10:25:28.663Z,15.8
2017-04-21T10:26:30.471Z,15.8
2017-04-21T10:27:32.280Z,15.8
2017-04-21T10:28:34.340Z,15.9
2017-04-21T10:29:36.497Z,15.9
2017-04-21T10:30:38.308Z,15.9
2017-04-21T10:31:40.128Z,15.9
2017-04-21T10:32:41.941Z,16
2017-04-21T10:33:43.747Z,16.1
2017-04-21T10:34:45.556Z,16.1
2017-04-21T10:35:47.361Z,16.1
2017-04-21T10:36:49.171Z,16.2
2017-04-21T10:37:50.976Z,16.2
2017-04-21T10:38:52.777Z,16.2
2017-04-21T10:39:54.616Z,16.2
2017-04-21T10:40:56.464Z,16.2
2017-04-21T10:41:58.608Z,16.2
2017-04-21T10:43:00.414Z,16.3
2017-04-21T10:44:02.221Z,16.3
2017-04-21T10:45:04.030Z,16.4
2017-04-21T10:46:05.833Z,16.4
2017-04-21T10:47:07.648Z,16.4
2017-04-21T10:48:09.452Z,16.4
2017-04-21T10:49:11.261Z,16.5
2017-04-21T10:50:13.071Z,16.6
2017-04-21T10:51:14.879Z,16.6
2017-04-21T10:52:16.730Z,16.7
2017-04-21T10:53:18.641Z,16.7
2017-04-21T10:54:20.453Z,16.7
2017-04-21T10:55:22.262Z,16.7
2017-04-21T10:56:24.079Z,16.8
2017-04-21T10:57:25.892Z,16.8
2017-04-21T10:58:27.699Z,16.7
2017-04-21T10:59:29.514Z,16.8
2017-04-21T11:00:31.322Z,16.7
2017-04-21T11:01:33.128Z,16.8
2017-04-21T11:02:34.938Z,16.9
2017-04-21T11:03:37.080Z,16.9
2017-04-21T11:04:39.071Z,17
2017-04-21T11:05:40.954Z,17.1
2017-04-21T11:06:42.763Z,17.1
2017-04-21T11:07:44.574Z,17.1
2017-04-21T11:08:46.386Z,17.2
2017-04-21T11:09:48.194Z,17.3
2017-04-21T11:10:50.002Z,17.3
2017-04-21T11:11:51.811Z,17.4
2017-04-21T11:12:53.619Z,17.5
2017-04-21T11:13:55.772Z,17.6
2017-04-21T11:14:57.583Z,17.7
2017-04-21T11:15:59.394Z,17.8
2017-04-21T11:17:01.348Z,17.9
2017-04-21T11:18:03.233Z,17.9
2017-04-21T11:19:05.038Z,18
2017-04-21T11:20:06.842Z,18.1
2017-04-21T11:21:08.650Z,18.2
2017-04-21T11:22:10.453Z,18.4
2017-04-21T11:23:12.272Z,18.5
2017-04-21T11:24:14.084Z,18.5
2017-04-21T11:25:15.892Z,18.6
2017-04-21T11:26:17.702Z,18.5
2017-04-21T11:27:19.507Z,18.5
2017-04-21T11:28:21.368Z,18.4
2017-04-21T11:29:23.173Z,18.4
2017-04-21T11:30:24.984Z,18.3
2017-04-21T11:31:26.793Z,18.3
2017-04-21T11:32:28.606Z,18.2
2017-04-21T11:33:30.416Z,18.2
2017-04-21T11:34:32.576Z,18.1
2017-04-21T11:35:34.383Z,18.1
2017-04-21T11:36:36.536Z,18
2017-04-21T11:37:38.343Z,18
2017-04-21T11:38:40.162Z,18
2017-04-21T11:39:41.972Z,18
2017-04-21T11:40:43.896Z,18
2017-04-21T11:41:45.712Z,17.9
2017-04-21T11:42:47.525Z,17.9
2017-04-21T11:43:49.345Z,17.9
2017-04-21T11:44:51.493Z,17.9
2017-04-21T11:45:53.301Z,17.8
2017-04-21T11:46:55.113Z,17.8
2017-04-21T11:47:56.914Z,17.8
2017-04-21T11:48:58.724Z,17.8
2017-04-21T11:50:00.534Z,17.8
2017-04-21T11:51:02.347Z,17.8
2017-04-21T11:52:04.155Z,17.9
2017-04-21T11:53:06.300Z,17.9
2017-04-21T11:54:08.155Z,17.9
2017-04-21T11:55:09.963Z,17.9
2017-04-21T11:56:11.773Z,18
2017-04-21T11:57:13.582Z,18
2017-04-21T11:58:15.389Z,18.1
2017-04-21T11:59:17.202Z,18.1
2017-04-21T12:00:19.009Z,18.2
2017-04-21T12:01:20.817Z,18.2
2017-04-21T12:02:22.627Z,18.2
2017-04-21T12:03:24.434Z,18.2
2017-04-21T12:04:26.298Z,18.3
2017-04-21T12:05:28.175Z,18.2
2017-04-21T12:06:29.983Z,18.2
2017-04-21T12:07:31.790Z,18.1
2017-04-21T12:08:33.594Z,18.1
2017-04-21T12:09:35.917Z,18.1
2017-04-21T12:10:37.733Z,18.1
2017-04-21T12:11:39.544Z,18
2017-04-21T12:12:41.367Z,18
2017-04-21T12:13:43.176Z,17.9
2017-04-21T12:14:44.988Z,18
2017-04-21T12:15:46.800Z,18
2017-04-21T12:16:48.614Z,18
2017-04-21T12:17:50.421Z,18
2017-04-21T12:18:52.234Z,17.9
2017-04-21T12:19:54.044Z,17.9
2017-04-21T12:20:55.848Z,18
2017-04-21T12:21:57.657Z,17.9
2017-04-21T12:22:59.821Z,17.9
2017-04-21T12:24:01.630Z,18
2017-04-21T12:25:03.439Z,18
2017-04-21T12:26:05.248Z,18
2017-04-21T12:27:07.057Z,18
2017-04-21T12:28:08.865Z,18
2017-04-21T12:29:10.869Z,18
2017-04-21T12:30:12.932Z,18
2017-04-21T12:31:14.742Z,18
2017-04-21T12:32:16.893Z,18
2017-04-21T12:33:18.704Z,18.1
2017-04-21T12:34:20.510Z,18.1
2017-04-21T12:35:22.655Z,18.2
2017-04-21T12:36:24.464Z,18.2
2017-04-21T12:37:26.273Z,18.2
2017-04-21T12:38:28.085Z,18.2
2017-04-21T12:39:29.897Z,18.3
2017-04-21T12:40:31.708Z,18.2
2017-04-21T12:41:33.561Z,18.3
2017-04-21T12:42:35.370Z,18.3
2017-04-21T12:43:37.178Z,18.4
2017-04-21T12:44:38.985Z,18.4
2017-04-21T12:45:40.801Z,18.5
2017-04-21T12:46:42.605Z,18.6
2017-04-21T12:47:44.413Z,18.6
2017-04-21T12:48:46.222Z,18.6
2017-04-21T12:49:48.242Z,18.6
2017-04-21T12:50:50.727Z,18.6
2017-04-21T12:51:53.179Z,18.6
2017-04-21T12:52:56.255Z,18.6
2017-04-21T12:53:58.972Z,18.6
2017-04-21T12:55:01.023Z,18.6
2017-04-21T12:56:03.090Z,18.5
2017-04-21T12:57:05.190Z,18.5
2017-04-21T12:58:07.269Z,18.4
2017-04-21T12:59:09.406Z,18.4
2017-04-21T13:00:11.811Z,18.3
2017-04-21T13:01:13.994Z,18.3
2017-04-21T13:02:16.055Z,18.3
2017-04-21T13:03:18.495Z,18.3
2017-04-21T13:04:20.905Z,18.3
2017-04-21T13:05:22.959Z,18.2
2017-04-21T13:06:25.087Z,18.3
2017-04-21T13:07:27.138Z,18.3
2017-04-21T13:08:29.233Z,18.3
2017-04-21T13:09:31.329Z,18.3
2017-04-21T13:10:33.336Z,18.2
2017-04-21T13:11:35.419Z,18.2
2017-04-21T13:12:37.892Z,18.2
2017-04-21T13:13:39.907Z,18.2
2017-04-21T13:14:42.304Z,18.1
2017-04-21T13:15:44.740Z,18.1
2017-04-21T13:16:46.853Z,18
2017-04-21T13:17:48.892Z,18
2017-04-21T13:18:51.440Z,17.9
2017-04-21T13:19:53.532Z,17.9
2017-04-21T13:20:55.556Z,17.9
2017-04-21T13:21:57.611Z,17.8
2017-04-21T13:22:59.902Z,17.8
2017-04-21T13:24:01.982Z,17.7
2017-04-21T13:25:04.293Z,17.7
2017-04-21T13:26:06.301Z,17.6
2017-04-21T13:27:08.207Z,17.6
2017-04-21T13:28:10.235Z,17.5
2017-04-21T13:29:12.315Z,17.4
2017-04-21T13:30:14.559Z,17.3
2017-04-21T13:31:16.369Z,17.3
2017-04-21T13:32:18.513Z,17.2
2017-04-21T13:33:20.385Z,17.2
2017-04-21T13:34:22.227Z,17.1
2017-04-21T13:35:24.719Z,17.1
2017-04-21T13:36:26.524Z,17
2017-04-21T13:37:28.366Z,17
2017-04-21T13:38:30.460Z,16.9
2017-04-21T13:39:32.327Z,16.9
2017-04-21T13:40:34.151Z,16.8
2017-04-21T13:41:35.995Z,16.8
2017-04-21T13:42:38.138Z,16.8
2017-04-21T13:43:40.294Z,16.8
2017-04-21T13:44:42.115Z,16.7
2017-04-21T13:45:43.925Z,16.7
2017-04-21T13:46:45.740Z,16.7
2017-04-21T13:47:47.544Z,16.7
2017-04-21T13:48:49.746Z,16.7
2017-04-21T13:49:51.553Z,16.6
2017-04-21T13:50:53.377Z,16.5
2017-04-21T13:51:55.928Z,16.5
2017-04-21T13:52:58.069Z,16.5
2017-04-21T13:54:00.274Z,16.4
2017-04-21T13:55:02.096Z,16.3
2017-04-21T13:56:03.907Z,16.3
2017-04-21T13:57:05.710Z,16.2
2017-04-21T13:58:07.519Z,16.2
2017-04-21T13:59:09.334Z,16.2
2017-04-21T14:00:11.182Z,16.1
2017-04-21T14:01:13.339Z,16.1
2017-04-21T14:02:15.798Z,16.1
2017-04-21T14:03:18.491Z,16
2017-04-21T14:04:20.299Z,16
2017-04-21T14:05:22.303Z,15.9
2017-04-21T14:06:24.585Z,15.9
2017-04-21T14:07:26.773Z,15.8
2017-04-21T14:08:28.593Z,15.8
2017-04-21T14:09:30.399Z,15.8
2017-04-21T14:10:32.208Z,15.7
2017-04-21T14:11:34.015Z,15.7
2017-04-21T14:12:35.836Z,15.7
2017-04-21T14:13:37.744Z,15.7
2017-04-21T14:14:39.615Z,15.7
2017-04-21T14:15:41.420Z,15.6